Time,TemperatureF,DewpointF,PressureIn,WindDirection,WindDirectionDegrees,WindSpeedMPH,WindSpeedGustMPH,Humidity,HourlyPrecipIn,Conditions,Clouds,dailyrainin,SoftwareType,DateUTC
2013-06-10 00:00:00,60.8,56.9,30.16,West,267,0.0,0.0,87,0.00,,,0.00,WeatherTracker,2013-06-10 04:00:00,
2013-06-10 00:05:00,60.7,57.1,30.16,West,267,1.0,0.0,88,0.00,,,0.00,WeatherTracker,2013-06-10 04:05:00,
2013-06-10 00:10:00,60.6,56.7,30.16,West,267,2.0,0.0,87,0.00,,,0.00,WeatherTracker,2013-06-10 04:10:00,
2013-06-10 00:15:00,60.5,56.6,30.16,West,267,0.0,0.0,87,0.00,,,0.00,WeatherTracker,2013-06-10 04:15:00,
2013-06-10 00:20:00,60.4,56.5,30.16,West,267,0.0,0.0,87,0.00,,,0.00,WeatherTracker,2013-06-10 04:20:00,
2013-06-10 00:25:00,60.3,56.7,30.17,West,267,0.0,0.0,88,0.00,,,0.00,WeatherTracker,2013-06-10 04:25:00,
2013-06-10 00:30:00,60.2,56.6,30.16,West,267,0.0,0.0,88,0.00,,,0.00,WeatherTracker,2013-06-10 04:30:00,
2013-06-10 00:35:00,60.1,56.5,30.16,West,267,0.0,0.0,88,0.00,,,0.00,WeatherTracker,2013-06-10 04:35:00,
2013-06-10 00:45:00,60.0,56.7,30.16,West,267,0.0,0.0,89,0.00,,,0.00,WeatherTracker,2013-06-10 04:45:00,
2013-06-10 00:55:00,59.7,56.5,30.17,West,267,1.0,0.0,89,0.00,,,0.00,WeatherTracker,2013-06-10 04:55:00,
2013-06-10 01:00:00,59.7,56.5,30.17,West,267,2.0,0.0,89,0.00,,,0.00,WeatherTracker,2013-06-10 05:00:00,
2013-06-10 01:05:00,59.6,56.4,30.17,West,266,0.0,0.0,89,0.00,,,0.00,WeatherTracker,2013-06-10 05:05:00,
2013-06-10 01:15:00,59.4,56.2,30.17,WNW,286,1.0,0.0,89,0.00,,,0.00,WeatherTracker,2013-06-10 05:15:00,
2013-06-10 01:20:00,59.3,56.4,30.17,WNW,286,1.0,0.0,90,0.00,,,0.00,WeatherTracker,2013-06-10 05:20:00,
2013-06-10 01:25:00,59.2,56.3,30.17,WNW,286,0.0,0.0,90,0.00,,,0.00,WeatherTracker,2013-06-10 05:25:00,
2013-06-10 01:35:00,59.0,56.1,30.16,WNW,286,0.0,0.0,90,0.00,,,0.00,WeatherTracker,2013-06-10 05:35:00,
2013-06-10 01:45:00,58.7,56.1,30.16,WNW,285,0.0,0.0,91,0.00,,,0.00,WeatherTracker,2013-06-10 05:45:00,
2013-06-10 01:50:00,58.6,56.0,30.16,West,265,1.0,0.0,91,0.00,,,0.00,WeatherTracker,2013-06-10 05:50:00,
2013-06-10 01:55:00,58.5,55.9,30.16,West,266,0.0,0.0,91,0.00,,,0.00,WeatherTracker,2013-06-10 05:55:00,
2013-06-10 02:05:00,58.3,55.7,30.16,West,265,0.0,0.0,91,0.00,,,0.00,WeatherTracker,2013-06-10 06:05:00,
2013-06-10 02:10:00,58.2,55.6,30.16,West,265,0.0,0.0,91,0.00,,,0.00,WeatherTracker,2013-06-10 06:10:00,
2013-06-10 02:20:00,58.0,55.7,30.16,West,267,0.0,0.0,92,0.00,,,0.00,WeatherTracker,2013-06-10 06:20:00,
2013-06-10 02:25:00,58.0,55.7,30.16,West,267,0.0,0.0,92,0.00,,,0.00,WeatherTracker,2013-06-10 06:25:00,
2013-06-10 02:30:00,57.8,55.5,30.16,West,267,0.0,0.0,92,0.00,,,0.00,WeatherTracker,2013-06-10 06:30:00,
2013-06-10 02:40:00,57.7,55.7,30.17,West,267,0.0,0.0,93,0.00,,,0.00,WeatherTracker,2013-06-10 06:40:00,
2013-06-10 02:45:00,57.6,55.6,30.17,West,267,0.0,0.0,93,0.00,,,0.00,WeatherTracker,2013-06-10 06:45:00,
2013-06-10 02:55:00,57.5,55.8,30.17,West,267,0.0,0.0,94,0.00,,,0.00,WeatherTracker,2013-06-10 06:55:00,
2013-06-10 03:00:00,57.4,55.7,30.17,West,269,3.0,0.0,94,0.00,,,0.00,WeatherTracker,2013-06-10 07:00:00,
2013-06-10 03:10:00,57.4,55.7,30.17,West,275,0.0,0.0,94,0.00,,,0.00,WeatherTracker,2013-06-10 07:10:00,
2013-06-10 03:15:00,57.4,56.0,30.17,West,275,0.0,0.0,95,0.00,,,0.00,WeatherTracker,2013-06-10 07:15:00,
2013-06-10 03:25:00,57.3,55.9,30.17,West,275,1.0,0.0,95,0.00,,,0.00,WeatherTracker,2013-06-10 07:25:00,
2013-06-10 03:35:00,57.3,55.9,30.17,West,275,0.0,0.0,95,0.00,,,0.00,WeatherTracker,2013-06-10 07:35:00,
2013-06-10 03:40:00,57.2,55.8,30.16,West,275,1.0,0.0,95,0.00,,,0.00,WeatherTracker,2013-06-10 07:40:00,
2013-06-10 03:45:00,57.1,55.7,30.16,West,275,0.0,0.0,95,0.00,,,0.00,WeatherTracker,2013-06-10 07:45:00,
2013-06-10 03:55:00,56.9,55.5,30.16,West,275,0.0,0.0,95,0.00,,,0.00,WeatherTracker,2013-06-10 07:55:00,
2013-06-10 04:05:00,56.8,55.4,30.16,West,275,0.0,0.0,95,0.00,,,0.00,WeatherTracker,2013-06-10 08:05:00,
2013-06-10 04:10:00,56.8,55.4,30.17,West,275,0.0,0.0,95,0.00,,,0.00,WeatherTracker,2013-06-10 08:10:00,
2013-06-10 04:20:00,56.6,55.2,30.16,West,275,0.0,0.0,95,0.00,,,0.00,WeatherTracker,2013-06-10 08:20:00,
2013-06-10 04:25:00,56.5,55.1,30.17,West,275,0.0,0.0,95,0.00,,,0.00,WeatherTracker,2013-06-10 08:25:00,
2013-06-10 04:30:00,56.4,55.0,30.17,West,275,0.0,0.0,95,0.00,,,0.00,WeatherTracker,2013-06-10 08:30:00,
2013-06-10 04:35:00,56.3,54.9,30.17,West,275,0.0,0.0,95,0.00,,,0.00,WeatherTracker,2013-06-10 08:35:00,
2013-06-10 04:45:00,56.2,55.1,30.17,West,273,1.0,0.0,96,0.00,,,0.00,WeatherTracker,2013-06-10 08:45:00,
2013-06-10 04:50:00,56.3,55.2,30.18,West,273,0.0,0.0,96,0.00,,,0.00,WeatherTracker,2013-06-10 08:50:00,
2013-06-10 04:55:00,56.2,55.1,30.18,West,273,0.0,0.0,96,0.00,,,0.00,WeatherTracker,2013-06-10 08:55:00,
2013-06-10 05:05:00,56.1,55.0,30.17,West,273,0.0,0.0,96,0.00,,,0.00,WeatherTracker,2013-06-10 09:05:00,
2013-06-10 05:10:00,56.1,55.0,30.17,West,273,0.0,0.0,96,0.00,,,0.00,WeatherTracker,2013-06-10 09:10:00,
2013-06-10 05:20:00,56.0,54.9,30.17,West,273,0.0,0.0,96,0.00,,,0.00,WeatherTracker,2013-06-10 09:20:00,
2013-06-10 05:25:00,55.9,54.8,30.17,West,273,0.0,0.0,96,0.00,,,0.00,WeatherTracker,2013-06-10 09:25:00,
2013-06-10 05:30:00,55.9,54.8,30.18,West,273,0.0,0.0,96,0.00,,,0.00,WeatherTracker,2013-06-10 09:30:00,
2013-06-10 05:40:00,55.9,54.8,30.18,West,273,0.0,0.0,96,0.00,,,0.00,WeatherTracker,2013-06-10 09:40:00,
2013-06-10 05:50:00,56.0,54.9,30.18,West,273,0.0,0.0,96,0.00,,,0.00,WeatherTracker,2013-06-10 09:50:00,
2013-06-10 05:55:00,56.1,55.3,30.18,West,273,0.0,0.0,97,0.00,,,0.00,WeatherTracker,2013-06-10 09:55:00,
2013-06-10 06:00:00,56.1,55.3,30.18,West,273,0.0,0.0,97,0.00,,,0.00,WeatherTracker,2013-06-10 10:00:00,
2013-06-10 06:10:00,56.3,55.5,30.18,West,273,0.0,0.0,97,0.00,,,0.00,WeatherTracker,2013-06-10 10:10:00,
2013-06-10 06:15:00,56.5,55.7,30.18,West,273,0.0,0.0,97,0.00,,,0.00,WeatherTracker,2013-06-10 10:15:00,
2013-06-10 06:25:00,56.9,56.1,30.18,West,273,0.0,0.0,97,0.00,,,0.00,WeatherTracker,2013-06-10 10:25:00,
2013-06-10 06:30:00,57.1,56.3,30.18,West,273,0.0,0.0,97,0.00,,,0.00,WeatherTracker,2013-06-10 10:30:00,
2013-06-10 06:40:00,57.6,56.8,30.18,West,273,0.0,0.0,97,0.00,,,0.00,WeatherTracker,2013-06-10 10:40:00,
2013-06-10 06:45:00,57.8,57.0,30.19,West,273,0.0,0.0,97,0.00,,,0.00,WeatherTracker,2013-06-10 10:45:00,
2013-06-10 06:55:00,58.3,57.5,30.19,West,273,0.0,0.0,97,0.00,,,0.00,WeatherTracker,2013-06-10 10:55:00,
2013-06-10 07:05:00,58.9,58.0,30.19,West,273,0.0,0.0,97,0.00,,,0.00,WeatherTracker,2013-06-10 11:05:00,
2013-06-10 07:10:00,59.1,58.2,30.19,West,273,0.0,0.0,97,0.00,,,0.00,WeatherTracker,2013-06-10 11:10:00,
2013-06-10 07:15:00,59.5,58.6,30.19,West,273,0.0,0.0,97,0.00,,,0.00,WeatherTracker,2013-06-10 11:15:00,
2013-06-10 07:20:00,59.8,58.9,30.19,West,273,0.0,0.0,97,0.00,,,0.00,WeatherTracker,2013-06-10 11:20:00,
2013-06-10 07:25:00,60.1,59.2,30.19,West,273,0.0,0.0,97,0.00,,,0.00,WeatherTracker,2013-06-10 11:25:00,
2013-06-10 07:30:00,60.4,59.5,30.20,WSW,248,1.0,0.0,97,0.00,,,0.00,WeatherTracker,2013-06-10 11:30:00,
2013-06-10 07:35:00,60.8,59.7,30.20,South,177,1.0,0.0,96,0.00,,,0.00,WeatherTracker,2013-06-10 11:35:00,
2013-06-10 07:45:00,61.5,59.2,30.20,SSE,150,5.0,0.0,92,0.00,,,0.00,WeatherTracker,2013-06-10 11:45:00,
2013-06-10 07:55:00,62.3,58.4,30.20,SE,140,4.0,0.0,87,0.00,,,0.00,WeatherTracker,2013-06-10 11:55:00,
2013-06-10 08:00:00,62.7,58.4,30.20,ENE,57,3.0,0.0,86,0.00,,,0.00,WeatherTracker,2013-06-10 12:00:00,
2013-06-10 08:05:00,63.1,58.5,30.20,SE,129,0.0,0.0,85,0.00,,,0.00,WeatherTracker,2013-06-10 12:05:00,
2013-06-10 08:10:00,63.6,58.7,30.20,ESE,122,2.0,0.0,84,0.00,,,0.00,WeatherTracker,2013-06-10 12:10:00,
2013-06-10 08:20:00,64.6,58.6,30.20,SE,128,1.0,0.0,81,0.00,,,0.00,WeatherTracker,2013-06-10 12:20:00,
2013-06-10 08:30:00,65.6,58.9,30.20,SE,132,3.0,0.0,79,0.00,,,0.00,WeatherTracker,2013-06-10 12:30:00,
2013-06-10 08:35:00,66.1,59.0,30.20,SE,126,1.0,0.0,78,0.00,,,0.00,WeatherTracker,2013-06-10 12:35:00,
2013-06-10 08:40:00,66.8,58.6,30.19,SW,220,2.0,0.0,75,0.00,,,0.00,WeatherTracker,2013-06-10 12:40:00,
2013-06-10 08:45:00,67.4,58.8,30.19,South,178,3.0,0.0,74,0.00,,,0.00,WeatherTracker,2013-06-10 12:45:00,
2013-06-10 08:50:00,67.9,58.9,30.19,ESE,113,0.0,0.0,73,0.00,,,0.00,WeatherTracker,2013-06-10 12:50:00,
2013-06-10 09:00:00,68.6,59.2,30.19,SSE,153,3.0,0.0,72,0.00,,,0.00,WeatherTracker,2013-06-10 13:00:00,
2013-06-10 09:10:00,69.4,59.6,30.19,South,180,3.0,0.0,71,0.00,,,0.00,WeatherTracker,2013-06-10 13:10:00,
2013-06-10 09:15:00,69.9,59.7,30.19,SSW,192,4.0,0.0,70,0.00,,,0.00,WeatherTracker,2013-06-10 13:15:00,
2013-06-10 09:20:00,70.3,59.6,30.19,East,91,2.0,0.0,69,0.00,,,0.00,WeatherTracker,2013-06-10 13:20:00,
2013-06-10 09:30:00,70.2,59.5,30.19,SSE,150,2.0,0.0,69,0.00,,,0.00,WeatherTracker,2013-06-10 13:30:00,
2013-06-10 09:40:00,70.4,58.5,30.19,East,99,2.0,0.0,66,0.00,,,0.00,WeatherTracker,2013-06-10 13:40:00,
2013-06-10 09:45:00,70.7,59.6,30.19,SSW,202,3.0,0.0,68,0.00,,,0.00,WeatherTracker,2013-06-10 13:45:00,
2013-06-10 09:50:00,70.9,59.0,30.19,SSE,158,4.0,0.0,66,0.00,,,0.00,WeatherTracker,2013-06-10 13:50:00,
2013-06-10 09:55:00,70.9,59.0,30.19,SW,214,0.0,0.0,66,0.00,,,0.00,WeatherTracker,2013-06-10 13:55:00,
2013-06-10 10:00:00,70.9,58.1,30.19,SW,218,4.0,0.0,64,0.00,,,0.00,WeatherTracker,2013-06-10 14:00:00,
2013-06-10 10:10:00,70.7,58.3,30.19,SSW,213,2.0,0.0,65,0.00,,,0.00,WeatherTracker,2013-06-10 14:10:00,
2013-06-10 10:15:00,70.5,57.3,30.19,SE,130,5.0,0.0,63,0.00,,,0.00,WeatherTracker,2013-06-10 14:15:00,
2013-06-10 10:25:00,69.8,57.9,30.19,South,190,1.0,0.0,66,0.00,,,0.00,WeatherTracker,2013-06-10 14:25:00,
2013-06-10 10:35:00,69.7,57.8,30.19,South,175,1.0,0.0,66,0.00,,,0.00,WeatherTracker,2013-06-10 14:35:00,
2013-06-10 10:45:00,69.8,58.3,30.19,WSW,242,3.0,0.0,67,0.00,,,0.00,WeatherTracker,2013-06-10 14:45:00,
2013-06-10 10:55:00,69.7,57.8,30.20,South,185,3.0,0.0,66,0.00,,,0.00,WeatherTracker,2013-06-10 14:55:00,
2013-06-10 11:00:00,69.7,57.8,30.19,SSE,161,0.0,0.0,66,0.00,,,0.00,WeatherTracker,2013-06-10 15:00:00,
2013-06-10 11:05:00,69.8,58.3,30.19,South,182,2.0,0.0,67,0.00,,,0.00,WeatherTracker,2013-06-10 15:05:00,
2013-06-10 11:10:00,69.6,57.7,30.19,SW,221,2.0,0.0,66,0.00,,,0.00,WeatherTracker,2013-06-10 15:10:00,
2013-06-10 11:20:00,69.5,57.2,30.20,SE,145,1.0,0.0,65,0.00,,,0.00,WeatherTracker,2013-06-10 15:20:00,
2013-06-10 11:30:00,69.0,57.2,30.19,SSE,158,4.0,0.0,66,0.00,,,0.00,WeatherTracker,2013-06-10 15:30:00,
2013-06-10 11:35:00,68.9,57.1,30.18,ESE,108,4.0,0.0,66,0.00,,,0.00,WeatherTracker,2013-06-10 15:35:00,
2013-06-10 11:45:00,68.7,56.4,30.18,SSE,152,1.0,0.0,65,0.00,,,0.00,WeatherTracker,2013-06-10 15:45:00,
2013-06-10 11:50:00,68.7,56.4,30.19,SSE,148,2.0,0.0,65,0.00,,,0.00,WeatherTracker,2013-06-10 15:50:00,
2013-06-10 12:00:00,68.5,56.7,30.19,South,171,1.0,0.0,66,0.00,,,0.00,WeatherTracker,2013-06-10 16:00:00,
2013-06-10 12:05:00,68.4,56.6,30.19,East,83,2.0,0.0,66,0.00,,,0.00,WeatherTracker,2013-06-10 16:05:00,
2013-06-10 12:15:00,68.4,57.0,30.19,SE,144,0.0,0.0,67,0.00,,,0.00,WeatherTracker,2013-06-10 16:15:00,
2013-06-10 12:20:00,68.3,57.7,30.19,SE,141,0.0,0.0,69,0.00,,,0.00,WeatherTracker,2013-06-10 16:20:00,
2013-06-10 12:30:00,68.0,58.2,30.19,SSW,207,3.0,0.0,71,0.00,,,0.00,WeatherTracker,2013-06-10 16:30:00,
2013-06-10 12:40:00,68.1,59.1,30.19,South,175,2.0,0.0,73,0.00,,,0.00,WeatherTracker,2013-06-10 16:40:00,
2013-06-10 12:45:00,68.1,59.9,30.19,South,182,1.0,0.0,75,0.00,,,0.00,WeatherTracker,2013-06-10 16:45:00,
2013-06-10 12:55:00,68.1,59.9,30.19,East,101,1.0,0.0,75,0.00,,,0.00,WeatherTracker,2013-06-10 16:55:00,
2013-06-10 13:05:00,68.4,60.2,30.19,SE,128,5.0,0.0,75,0.00,,,0.00,WeatherTracker,2013-06-10 17:05:00,
2013-06-10 13:10:00,68.5,59.9,30.18,SE,133,1.0,0.0,74,0.00,,,0.00,WeatherTracker,2013-06-10 17:10:00,
2013-06-10 13:20:00,68.7,60.4,30.18,SSW,207,1.0,0.0,75,0.00,,,0.00,WeatherTracker,2013-06-10 17:20:00,
2013-06-10 13:30:00,68.9,60.3,30.18,SE,142,0.0,0.0,74,0.00,,,0.00,WeatherTracker,2013-06-10 17:30:00,
2013-06-10 13:35:00,68.9,59.9,30.18,SE,130,0.0,0.0,73,0.00,,,0.00,WeatherTracker,2013-06-10 17:35:00,
2013-06-10 13:40:00,69.0,60.0,30.17,SE,146,2.0,0.0,73,0.00,,,0.00,WeatherTracker,2013-06-10 17:40:00,
2013-06-10 13:45:00,68.8,60.2,30.17,SSE,164,0.0,0.0,74,0.00,,,0.00,WeatherTracker,2013-06-10 17:45:00,
2013-06-10 13:50:00,68.9,61.0,30.17,East,89,1.0,0.0,76,0.00,,,0.00,WeatherTracker,2013-06-10 17:50:00,
2013-06-10 13:55:00,68.8,61.3,30.17,SW,224,2.0,0.0,77,0.00,,,0.00,WeatherTracker,2013-06-10 17:55:00,
2013-06-10 14:00:00,68.6,60.7,30.17,South,175,1.0,0.0,76,0.00,,,0.00,WeatherTracker,2013-06-10 18:00:00,
2013-06-10 14:10:00,68.5,60.6,30.16,SSE,150,1.0,0.0,76,0.00,,,0.00,WeatherTracker,2013-06-10 18:10:00,
2013-06-10 14:15:00,68.5,60.6,30.16,SW,214,1.0,0.0,76,0.00,,,0.00,WeatherTracker,2013-06-10 18:15:00,
2013-06-10 14:20:00,68.5,60.6,30.17,SE,140,3.0,0.0,76,0.00,,,0.00,WeatherTracker,2013-06-10 18:20:00,
2013-06-10 14:30:00,68.5,61.4,30.16,West,275,0.0,0.0,78,0.00,,,0.00,WeatherTracker,2013-06-10 18:30:00,
2013-06-10 14:40:00,68.4,61.3,30.16,SW,214,1.0,0.0,78,0.00,,,0.00,WeatherTracker,2013-06-10 18:40:00,
2013-06-10 14:50:00,68.3,61.2,30.16,South,188,1.0,0.0,78,0.00,,,0.00,WeatherTracker,2013-06-10 18:50:00,
2013-06-10 14:55:00,68.2,61.4,30.16,South,171,3.0,0.0,79,0.00,,,0.00,WeatherTracker,2013-06-10 18:55:00,
2013-06-10 15:00:00,68.2,62.1,30.16,South,190,0.0,0.0,81,0.00,,,0.00,WeatherTracker,2013-06-10 19:00:00,
2013-06-10 15:05:00,68.0,61.9,30.16,WSW,248,1.0,0.0,81,0.00,,,0.00,WeatherTracker,2013-06-10 19:05:00,
2013-06-10 15:15:00,67.6,61.9,30.16,SW,220,0.0,0.0,82,0.00,,,0.00,WeatherTracker,2013-06-10 19:15:00,
2013-06-10 15:20:00,67.7,62.7,30.16,SW,219,0.0,0.0,84,0.00,,,0.00,WeatherTracker,2013-06-10 19:20:00,
2013-06-10 15:25:00,67.7,62.0,30.16,SW,223,3.0,0.0,82,0.00,,,0.00,WeatherTracker,2013-06-10 19:25:00,
2013-06-10 15:35:00,67.3,61.3,30.15,SSE,150,3.0,0.0,81,0.00,,,0.00,WeatherTracker,2013-06-10 19:35:00,
2013-06-10 15:40:00,67.0,60.6,30.15,SSE,162,1.0,0.0,80,0.00,,,0.00,WeatherTracker,2013-06-10 19:40:00,
2013-06-10 15:45:00,67.0,61.7,30.14,SSE,159,0.0,0.0,83,0.00,,,0.00,WeatherTracker,2013-06-10 19:45:00,
2013-06-10 15:50:00,67.0,61.7,30.14,SSW,196,1.0,0.0,83,0.00,,,0.00,WeatherTracker,2013-06-10 19:50:00,
2013-06-10 15:55:00,66.9,61.9,30.14,South,191,1.0,0.0,84,0.00,,,0.00,WeatherTracker,2013-06-10 19:55:00,
2013-06-10 16:05:00,66.8,61.8,30.14,SSW,211,3.0,0.0,84,0.00,,,0.00,WeatherTracker,2013-06-10 20:05:00,
2013-06-10 16:10:00,66.7,62.4,30.13,SE,137,2.0,0.0,86,0.00,,,0.00,WeatherTracker,2013-06-10 20:10:00,
2013-06-10 16:15:00,66.5,62.2,30.13,ESE,105,0.0,0.0,86,0.01,,,0.01,WeatherTracker,2013-06-10 20:15:00,
2013-06-10 16:20:00,66.3,62.3,30.13,SE,131,3.0,0.0,87,0.01,,,0.01,WeatherTracker,2013-06-10 20:20:00,
2013-06-10 16:25:00,66.1,61.8,30.13,SSE,168,3.0,0.0,86,0.01,,,0.01,WeatherTracker,2013-06-10 20:25:00,
2013-06-10 16:30:00,66.0,61.7,30.13,South,178,1.0,0.0,86,0.01,,,0.01,WeatherTracker,2013-06-10 20:30:00,
2013-06-10 16:40:00,65.6,61.9,30.12,ESE,109,4.0,0.0,88,0.01,,,0.01,WeatherTracker,2013-06-10 20:40:00,
2013-06-10 16:45:00,65.4,61.7,30.12,ESE,114,1.0,0.0,88,0.02,,,0.02,WeatherTracker,2013-06-10 20:45:00,
2013-06-10 16:50:00,65.3,62.0,30.12,ESE,111,0.0,0.0,89,0.02,,,0.02,WeatherTracker,2013-06-10 20:50:00,
2013-06-10 16:55:00,65.2,61.9,30.12,ENE,63,1.0,0.0,89,0.02,,,0.02,WeatherTracker,2013-06-10 20:55:00,
2013-06-10 17:05:00,64.6,61.6,30.12,SE,134,1.0,0.0,90,0.03,,,0.03,WeatherTracker,2013-06-10 21:05:00,
2013-06-10 17:15:00,64.1,61.4,30.11,SE,128,0.0,0.0,91,0.02,,,0.03,WeatherTracker,2013-06-10 21:15:00,
2013-06-10 17:20:00,64.1,61.7,30.11,ESE,121,0.0,0.0,92,0.03,,,0.04,WeatherTracker,2013-06-10 21:20:00,
2013-06-10 17:30:00,64.0,61.3,30.11,South,177,2.0,0.0,91,0.03,,,0.04,WeatherTracker,2013-06-10 21:30:00,
2013-06-10 17:35:00,63.9,61.5,30.11,SSE,151,0.0,0.0,92,0.03,,,0.04,WeatherTracker,2013-06-10 21:35:00,
2013-06-10 17:40:00,63.8,61.4,30.11,SE,138,0.0,0.0,92,0.04,,,0.05,WeatherTracker,2013-06-10 21:40:00,
2013-06-10 17:45:00,63.7,61.3,30.11,SSE,151,2.0,0.0,92,0.03,,,0.05,WeatherTracker,2013-06-10 21:45:00,
2013-06-10 17:55:00,63.5,61.4,30.11,SE,125,1.0,0.0,93,0.03,,,0.05,WeatherTracker,2013-06-10 21:55:00,
2013-06-10 18:00:00,63.4,61.3,30.10,ESE,113,0.0,0.0,93,0.03,,,0.05,WeatherTracker,2013-06-10 22:00:00,
2013-06-10 18:10:00,63.2,61.4,30.10,ESE,119,1.0,0.0,94,0.03,,,0.06,WeatherTracker,2013-06-10 22:10:00,
2013-06-10 18:15:00,63.1,61.3,30.10,SE,140,2.0,0.0,94,0.03,,,0.06,WeatherTracker,2013-06-10 22:15:00,
2013-06-10 18:25:00,62.9,61.1,30.10,East,101,0.0,0.0,94,0.02,,,0.06,WeatherTracker,2013-06-10 22:25:00,
2013-06-10 18:35:00,62.8,61.0,30.10,SSE,157,0.0,0.0,94,0.03,,,0.07,WeatherTracker,2013-06-10 22:35:00,
2013-06-10 18:40:00,62.8,61.0,30.10,SSE,154,0.0,0.0,94,0.03,,,0.07,WeatherTracker,2013-06-10 22:40:00,
2013-06-10 18:45:00,62.7,60.9,30.10,SSE,153,1.0,0.0,94,0.03,,,0.08,WeatherTracker,2013-06-10 22:45:00,
2013-06-10 18:50:00,62.6,60.8,30.10,SSE,148,0.0,0.0,94,0.03,,,0.08,WeatherTracker,2013-06-10 22:50:00,
2013-06-10 18:55:00,62.6,61.1,30.10,ESE,115,0.0,0.0,95,0.04,,,0.09,WeatherTracker,2013-06-10 22:55:00,
2013-06-10 19:00:00,62.5,61.0,30.10,SE,135,2.0,0.0,95,0.05,,,0.10,WeatherTracker,2013-06-10 23:00:00,
2013-06-10 19:10:00,62.3,60.8,30.10,SE,136,1.0,0.0,95,0.06,,,0.12,WeatherTracker,2013-06-10 23:10:00,
2013-06-10 19:15:00,62.3,60.8,30.10,SSE,150,0.0,0.0,95,0.07,,,0.13,WeatherTracker,2013-06-10 23:15:00,
2013-06-10 19:25:00,62.2,60.7,30.10,SSE,167,2.0,0.0,95,0.08,,,0.14,WeatherTracker,2013-06-10 23:25:00,
2013-06-10 19:35:00,61.8,60.4,30.09,SSE,155,0.0,0.0,95,0.09,,,0.16,WeatherTracker,2013-06-10 23:35:00,
2013-06-10 19:40:00,61.6,60.2,30.09,SSE,150,0.0,0.0,95,0.11,,,0.18,WeatherTracker,2013-06-10 23:40:00,
2013-06-10 19:45:00,61.6,60.2,30.08,SE,128,3.0,0.0,95,0.11,,,0.19,WeatherTracker,2013-06-10 23:45:00,
2013-06-10 19:55:00,61.3,60.1,30.08,East,101,1.0,0.0,96,0.12,,,0.21,WeatherTracker,2013-06-10 23:55:00,
2013-06-10 20:00:00,61.3,60.1,30.08,SSE,150,0.0,0.0,96,0.12,,,0.22,WeatherTracker,2013-06-11 00:00:00,
2013-06-10 20:10:00,61.2,60.0,30.07,SE,134,2.0,0.0,96,0.12,,,0.24,WeatherTracker,2013-06-11 00:10:00,
2013-06-10 20:15:00,61.1,59.9,30.07,SSE,154,2.0,0.0,96,0.12,,,0.25,WeatherTracker,2013-06-11 00:15:00,
2013-06-10 20:25:00,61.0,59.8,30.06,SE,140,0.0,0.0,96,0.12,,,0.26,WeatherTracker,2013-06-11 00:25:00,
2013-06-10 20:35:00,60.8,59.7,30.06,SSE,163,2.0,0.0,96,0.11,,,0.27,WeatherTracker,2013-06-11 00:35:00,
2013-06-10 20:40:00,60.8,59.9,30.05,ESE,119,3.0,0.0,97,0.10,,,0.28,WeatherTracker,2013-06-11 00:40:00,
2013-06-10 20:45:00,60.6,59.7,30.05,SSE,153,2.0,0.0,97,0.10,,,0.29,WeatherTracker,2013-06-11 00:45:00,
2013-06-10 20:55:00,60.5,59.4,30.05,SE,132,4.0,0.0,96,0.10,,,0.31,WeatherTracker,2013-06-11 00:55:00,
2013-06-10 21:00:00,60.4,59.3,30.05,SSE,148,3.0,0.0,96,0.09,,,0.31,WeatherTracker,2013-06-11 01:00:00,
2013-06-10 21:10:00,60.2,59.3,30.05,ESE,121,1.0,0.0,97,0.08,,,0.32,WeatherTracker,2013-06-11 01:10:00,
2013-06-10 21:15:00,60.2,59.3,30.04,SE,137,3.0,0.0,97,0.07,,,0.32,WeatherTracker,2013-06-11 01:15:00,
2013-06-10 21:20:00,60.1,59.2,30.04,East,80,1.0,0.0,97,0.07,,,0.33,WeatherTracker,2013-06-11 01:20:00,
2013-06-10 21:25:00,60.0,59.1,30.04,South,172,2.0,0.0,97,0.08,,,0.34,WeatherTracker,2013-06-11 01:25:00,
2013-06-10 21:35:00,59.8,58.7,30.04,East,83,5.0,0.0,96,0.08,,,0.35,WeatherTracker,2013-06-11 01:35:00,
2013-06-10 21:40:00,59.7,58.6,30.04,SSW,209,5.0,0.0,96,0.08,,,0.36,WeatherTracker,2013-06-11 01:40:00,
2013-06-10 21:45:00,59.6,58.5,30.04,ESE,123,2.0,0.0,96,0.09,,,0.38,WeatherTracker,2013-06-11 01:45:00,
2013-06-10 21:50:00,59.5,58.6,30.04,NW,317,0.0,0.0,97,0.10,,,0.40,WeatherTracker,2013-06-11 01:50:00,
2013-06-10 21:55:00,59.5,58.6,30.04,SSE,153,0.0,0.0,97,0.11,,,0.42,WeatherTracker,2013-06-11 01:55:00,
2013-06-10 22:00:00,59.4,58.5,30.04,South,182,1.0,0.0,97,0.13,,,0.44,WeatherTracker,2013-06-11 02:00:00,
2013-06-10 22:10:00,59.3,58.4,30.04,SE,139,0.0,0.0,97,0.14,,,0.46,WeatherTracker,2013-06-11 02:10:00,
2013-06-10 22:20:00,59.3,58.4,30.04,ESE,103,3.0,0.0,97,0.13,,,0.46,WeatherTracker,2013-06-11 02:20:00,
2013-06-10 22:30:00,59.1,58.2,30.03,SSE,148,2.0,0.0,97,0.14,,,0.48,WeatherTracker,2013-06-11 02:30:00,
2013-06-10 22:35:00,59.0,58.1,30.03,ESE,123,1.0,0.0,97,0.13,,,0.48,WeatherTracker,2013-06-11 02:35:00,
2013-06-10 22:45:00,59.0,58.1,30.03,East,90,2.0,0.0,97,0.11,,,0.49,WeatherTracker,2013-06-11 02:45:00,
2013-06-10 22:50:00,58.9,58.0,30.02,ESE,108,3.0,0.0,97,0.10,,,0.50,WeatherTracker,2013-06-11 02:50:00,
2013-06-10 23:00:00,58.8,57.9,30.02,South,171,1.0,0.0,97,0.07,,,0.51,WeatherTracker,2013-06-11 03:00:00,
2013-06-10 23:05:00,58.8,57.9,30.02,South,181,1.0,0.0,97,0.08,,,0.53,WeatherTracker,2013-06-11 03:05:00,
2013-06-10 23:10:00,58.7,57.8,30.02,SW,215,3.0,0.0,97,0.09,,,0.55,WeatherTracker,2013-06-11 03:10:00,
2013-06-10 23:15:00,58.6,57.8,30.02,South,170,3.0,0.0,97,0.12,,,0.58,WeatherTracker,2013-06-11 03:15:00,
2013-06-10 23:20:00,58.6,57.8,30.02,ESE,113,1.0,0.0,97,0.15,,,0.61,WeatherTracker,2013-06-11 03:20:00,
2013-06-10 23:25:00,58.5,57.7,30.02,SE,129,1.0,0.0,97,0.15,,,0.62,WeatherTracker,2013-06-11 03:25:00,
2013-06-10 23:35:00,58.5,57.7,30.02,SSW,207,2.0,0.0,97,0.16,,,0.64,WeatherTracker,2013-06-11 03:35:00,
2013-06-10 23:45:00,58.4,57.6,30.02,SE,139,1.0,0.0,97,0.16,,,0.65,WeatherTracker,2013-06-11 03:45:00,
2013-06-10 23:50:00,58.3,57.5,30.02,SSW,209,5.0,0.0,97,0.15,,,0.65,WeatherTracker,2013-06-11 03:50:00,
2013-06-10 23:55:00,58.3,57.5,30.01,SSE,154,3.0,0.0,97,0.15,,,0.65,WeatherTracker,2013-06-11 03:55:00,